Time;durP1;ratioP1;P1;durP2;ratioP2;P2;SDS_P1;SDS_P2;PMS_P1;PMS_P2;Temp;Humidity;BMP_temperature;BMP_pressure;BME280_temperature;BME280_humidity;BME280_pressure;Samples;Min_cycle;Max_cycle;Signal;HPM_P1;HPM_P2
2021/05/06 00:03:45;;;;;;;1.23;0.90;;;3.30;99.90;;;;;;5028193;28;20273;-79
2021/05/06 00:33:01;;;;;;;0.43;0.43;;;3.00;99.90;;;;;;5019017;28;20266;-80
2021/05/06 00:35:29;;;;;;;0.70;0.70;;;2.90;99.90;;;;;;5030739;28;20694;-80
2021/05/06 00:40:53;;;;;;;0.67;0.53;;;2.90;99.90;;;;;;5030785;28;20178;-79
2021/05/06 00:43:46;;;;;;;0.50;0.50;;;2.80;99.90;;;;;;5030350;28;20182;-79
2021/05/06 01:09:22;;;;;;;1.30;0.50;;;2.70;99.90;;;;;;5029108;28;20182;-81
2021/05/06 01:11:56;;;;;;;0.57;0.57;;;2.60;99.90;;;;;;5027409;28;20187;-80
2021/05/06 01:14:22;;;;;;;1.03;0.30;;;2.60;99.90;;;;;;5027038;28;20183;-78
2021/05/06 01:16:47;;;;;;;0.30;0.30;;;2.60;99.90;;;;;;5027540;28;20277;-80
2021/05/06 01:19:13;;;;;;;0.40;0.40;;;2.60;99.90;;;;;;5027491;28;20278;-80
2021/05/06 01:21:38;;;;;;;0.40;0.30;;;2.60;99.90;;;;;;5027999;28;20175;-78
2021/05/06 01:24:05;;;;;;;0.30;0.20;;;2.50;99.90;;;;;;5029002;28;20238;-79
2021/05/06 01:26:34;;;;;;;0.90;0.73;;;2.60;99.90;;;;;;5027989;28;20205;-82
2021/05/06 01:29:04;;;;;;;2.27;0.97;;;2.60;99.90;;;;;;5028180;28;20548;-79
2021/05/06 01:31:35;;;;;;;0.30;0.30;;;2.60;99.90;;;;;;5030878;28;20629;-79
2021/05/06 01:36:43;;;;;;;0.63;0.20;;;2.50;99.90;;;;;;5029061;28;20198;-78
2021/05/06 01:40:28;;;;;;;0.40;0.37;;;2.50;99.90;;;;;;5026835;28;20214;-78
2021/05/06 01:42:18;;;;;;;0.50;0.50;;;2.50;99.90;;;;;;5023754;28;20197;-79
2021/05/06 01:45:06;;;;;;;0.63;0.40;;;2.50;99.90;;;;;;5043574;28;20194;-78
2021/05/06 02:00:50;;;;;;;0.90;0.40;;;2.30;99.90;;;;;;5028752;28;20183;-78
2021/05/06 02:03:15;;;;;;;0.93;0.63;;;2.30;99.90;;;;;;5026155;28;20244;-79
2021/05/06 02:05:41;;;;;;;0.40;0.30;;;2.30;99.90;;;;;;5027773;28;20214;-79
2021/05/06 02:08:06;;;;;;;1.57;0.90;;;2.40;99.90;;;;;;5027052;28;20244;-80
2021/05/06 02:10:33;;;;;;;0.50;0.40;;;2.40;99.90;;;;;;5027142;28;20430;-82
2021/05/06 02:12:59;;;;;;;0.80;0.40;;;2.30;99.90;;;;;;5026827;28;20190;-79
2021/05/06 02:17:52;;;;;;;0.53;0.43;;;2.30;99.90;;;;;;5028406;28;20305;-78
2021/05/06 02:20:17;;;;;;;0.20;0.20;;;2.30;99.90;;;;;;5026555;28;20198;-77
2021/05/06 02:22:46;;;;;;;1.13;0.53;;;2.30;99.90;;;;;;5028010;28;20190;-77
2021/05/06 02:25:12;;;;;;;0.43;0.30;;;2.30;99.90;;;;;;5027199;28;20593;-78
2021/05/06 02:27:38;;;;;;;1.80;0.47;;;2.30;99.90;;;;;;5036253;28;20198;-78
2021/05/06 02:30:05;;;;;;;0.53;0.53;;;2.30;99.90;;;;;;5028089;28;20214;-76
2021/05/06 02:32:30;;;;;;;0.30;0.30;;;2.30;99.90;;;;;;5027613;28;20190;-81
2021/05/06 02:34:57;;;;;;;0.70;0.37;;;2.40;99.90;;;;;;5025704;28;20207;-79
2021/05/06 02:37:23;;;;;;;0.70;0.50;;;2.40;99.90;;;;;;5025681;28;21261;-78
2021/05/06 02:39:48;;;;;;;1.70;1.20;;;2.50;99.90;;;;;;5026610;28;20183;-80
2021/05/06 02:42:14;;;;;;;2.20;0.70;;;2.50;99.90;;;;;;5025485;28;20220;-79
2021/05/06 02:44:41;;;;;;;2.17;0.80;;;2.50;99.90;;;;;;5025253;28;20240;-80
2021/05/06 02:47:07;;;;;;;1.70;1.00;;;2.50;99.90;;;;;;5025176;28;21128;-75
2021/05/06 02:49:33;;;;;;;1.77;0.60;;;2.50;99.90;;;;;;5027769;28;20175;-82
2021/05/06 02:52:12;;;;;;;0.80;0.57;;;2.40;99.90;;;;;;5027716;28;20215;-80
2021/05/06 02:54:41;;;;;;;1.70;0.90;;;2.40;99.90;;;;;;5026340;28;20245;-80
2021/05/06 02:57:38;;;;;;;0.50;0.50;;;2.40;99.90;;;;;;5024948;28;20191;-79
2021/05/06 03:05:13;;;;;;;1.00;0.90;;;2.30;99.90;;;;;;5025719;28;20214;-81
2021/05/06 03:07:41;;;;;;;2.97;1.47;;;2.30;99.90;;;;;;5025620;28;20179;-80
2021/05/06 03:11:06;;;;;;;1.07;0.70;;;2.30;99.90;;;;;;5024765;28;20236;-78
2021/05/06 03:23:49;;;;;;;0.57;0.40;;;2.60;99.90;;;;;;5025834;28;20179;-78
2021/05/06 03:26:15;;;;;;;1.87;0.67;;;2.60;99.90;;;;;;5025885;28;20225;-78
2021/05/06 03:31:45;;;;;;;0.30;0.30;;;2.50;99.90;;;;;;5024549;28;20202;-78
2021/05/06 03:45:49;;;;;;;0.50;0.40;;;2.80;99.90;;;;;;5001432;28;20719;-80
2021/05/06 04:18:22;;;;;;;1.57;1.07;;;3.30;99.90;;;;;;5025399;28;20189;-79
2021/05/06 04:26:27;;;;;;;1.23;1.00;;;3.40;99.90;;;;;;5025838;28;20213;-83
2021/05/06 04:29:39;;;;;;;0.70;0.70;;;3.60;99.90;;;;;;5025265;28;20285;-76
2021/05/06 04:37:06;;;;;;;0.80;0.77;;;3.60;99.90;;;;;;5025627;28;20201;-80
2021/05/06 04:55:52;;;;;;;1.47;0.90;;;3.90;99.90;;;;;;5025290;28;20296;-78
2021/05/06 05:06:10;;;;;;;6.13;1.80;;;4.20;99.90;;;;;;5028427;28;20215;-78
2021/05/06 05:24:54;;;;;;;2.10;1.77;;;4.90;99.90;;;;;;5028349;28;20217;-79
2021/05/06 05:27:22;;;;;;;1.73;1.60;;;5.10;99.90;;;;;;5028201;28;20198;-81
2021/05/06 05:29:49;;;;;;;2.00;1.70;;;5.20;99.90;;;;;;5026982;28;20179;-81
2021/05/06 05:32:15;;;;;;;2.03;1.60;;;5.30;99.90;;;;;;5043750;28;20266;-81
2021/05/06 05:34:44;;;;;;;3.67;2.13;;;5.30;99.90;;;;;;5033829;28;20313;-79
2021/05/06 05:37:16;;;;;;;2.03;1.90;;;5.40;99.90;;;;;;5028188;28;20276;-80
2021/05/06 05:55:30;;;;;;;2.40;1.90;;;5.70;99.90;;;;;;5028378;28;20261;-80
2021/05/06 05:57:55;;;;;;;1.80;1.63;;;5.80;99.90;;;;;;5027775;28;20207;-77
2021/05/06 06:00:21;;;;;;;1.90;1.80;;;5.80;99.90;;;;;;5027487;28;20195;-78
2021/05/06 06:02:46;;;;;;;3.40;2.33;;;5.90;99.90;;;;;;5029413;28;20179;-80
2021/05/06 06:05:12;;;;;;;3.23;2.33;;;5.90;99.90;;;;;;5028274;28;20211;-79
2021/05/06 06:07:38;;;;;;;2.60;2.30;;;5.80;99.90;;;;;;5028426;28;20210;-77
2021/05/06 06:10:05;;;;;;;2.57;2.30;;;5.90;99.90;;;;;;5028951;28;20272;-81
2021/05/06 06:12:30;;;;;;;3.77;2.07;;;6.00;99.90;;;;;;5027038;28;20881;-79
2021/05/06 06:15:07;;;;;;;2.30;2.00;;;6.20;99.90;;;;;;5026765;28;20198;-81
2021/05/06 06:17:40;;;;;;;2.33;2.03;;;6.30;99.90;;;;;;5027199;28;20183;-79
2021/05/06 06:20:06;;;;;;;4.57;2.20;;;6.40;99.90;;;;;;5028996;28;20179;-79
2021/05/06 06:22:32;;;;;;;3.20;2.07;;;6.30;99.90;;;;;;5026954;28;20675;-78
2021/05/06 06:25:01;;;;;;;3.23;2.53;;;6.40;99.90;;;;;;5028034;28;20221;-80
2021/05/06 06:27:27;;;;;;;3.40;1.90;;;6.40;99.90;;;;;;5026532;28;20183;-79
2021/05/06 06:29:53;;;;;;;3.10;2.43;;;6.30;99.90;;;;;;5026170;28;20229;-78
2021/05/06 06:32:18;;;;;;;2.60;2.10;;;6.30;99.90;;;;;;5027275;28;20194;-78
2021/05/06 06:34:44;;;;;;;3.77;1.77;;;6.20;99.90;;;;;;5027467;28;20213;-80
2021/05/06 06:37:10;;;;;;;2.40;2.00;;;6.10;99.90;;;;;;5027670;28;20628;-81
2021/05/06 06:39:39;;;;;;;2.40;1.77;;;6.00;99.90;;;;;;5027530;28;20212;-80
2021/05/06 06:42:07;;;;;;;3.70;2.23;;;5.90;99.90;;;;;;5027881;28;20178;-78
2021/05/06 06:44:33;;;;;;;2.60;2.40;;;5.90;99.90;;;;;;5027431;28;20191;-80
2021/05/06 06:47:03;;;;;;;3.23;2.10;;;5.80;99.90;;;;;;5027437;28;20181;-75
2021/05/06 06:49:39;;;;;;;5.50;2.23;;;5.90;99.90;;;;;;5026232;28;20182;-78
2021/05/06 06:52:08;;;;;;;4.00;2.37;;;5.90;99.90;;;;;;5024753;28;20206;-79
2021/05/06 06:54:34;;;;;;;3.73;3.00;;;5.70;99.90;;;;;;5025876;28;20183;-78
2021/05/06 06:57:00;;;;;;;3.27;2.40;;;5.60;99.90;;;;;;5024454;28;20240;-81
2021/05/06 06:59:26;;;;;;;3.40;2.80;;;5.50;99.90;;;;;;5025377;28;20648;-76
2021/05/06 07:01:52;;;;;;;2.43;2.23;;;5.40;99.90;;;;;;5021986;28;20229;-75
2021/05/06 07:04:19;;;;;;;2.73;2.17;;;5.30;99.90;;;;;;5021448;28;20223;-75
2021/05/06 07:06:44;;;;;;;2.83;2.50;;;5.20;99.90;;;;;;5021623;28;20191;-75
2021/05/06 07:09:10;;;;;;;2.50;2.30;;;5.20;99.90;;;;;;5021266;28;20175;-76
2021/05/06 07:11:37;;;;;;;2.73;2.23;;;5.20;99.90;;;;;;5021996;28;20175;-77
2021/05/06 07:14:04;;;;;;;3.10;2.57;;;5.10;99.90;;;;;;5021433;28;20256;-77
2021/05/06 07:16:29;;;;;;;3.50;2.40;;;4.90;99.90;;;;;;5021713;28;20202;-78
2021/05/06 07:18:58;;;;;;;4.37;2.67;;;4.90;99.90;;;;;;5023016;28;20187;-77
2021/05/06 07:21:25;;;;;;;4.60;3.13;;;4.90;99.90;;;;;;5022657;28;20186;-75
2021/05/06 07:23:54;;;;;;;2.77;2.40;;;4.90;99.90;;;;;;5022523;28;20421;-76
2021/05/06 07:26:22;;;;;;;4.20;2.77;;;5.00;99.90;;;;;;5021690;28;20218;-76
2021/05/06 07:28:49;;;;;;;2.93;2.63;;;5.30;99.90;;;;;;5021008;28;20511;-77
2021/05/06 07:31:15;;;;;;;3.10;2.80;;;5.40;99.90;;;;;;5023111;28;20183;-76
2021/05/06 07:33:43;;;;;;;4.30;2.77;;;5.60;99.90;;;;;;5022329;28;20365;-76
2021/05/06 07:36:12;;;;;;;3.03;2.57;;;5.80;99.90;;;;;;5022460;28;20210;-76
2021/05/06 07:38:38;;;;;;;2.47;2.27;;;6.10;99.90;;;;;;5022249;28;20206;-76
2021/05/06 07:41:04;;;;;;;3.83;2.77;;;6.30;99.90;;;;;;5022033;28;20193;-76
2021/05/06 07:43:31;;;;;;;3.17;2.87;;;6.30;99.90;;;;;;5022184;28;20708;-76
2021/05/06 07:46:00;;;;;;;3.07;2.77;;;6.10;99.90;;;;;;5022513;28;20218;-80
2021/05/06 07:48:26;;;;;;;3.70;2.70;;;6.10;99.90;;;;;;5025876;28;20671;-80
2021/05/06 07:50:52;;;;;;;3.03;2.70;;;6.00;99.90;;;;;;5022291;28;20274;-81
2021/05/06 07:53:34;;;;;;;2.87;2.37;;;6.10;99.90;;;;;;5021755;28;20214;-76
2021/05/06 07:56:00;;;;;;;3.10;2.67;;;6.10;99.90;;;;;;5023417;28;20242;-79
2021/05/06 07:58:26;;;;;;;2.53;2.33;;;5.90;99.90;;;;;;5021579;28;20214;-78
2021/05/06 08:00:52;;;;;;;3.83;3.20;;;5.90;99.90;;;;;;5022204;28;20596;-78
2021/05/06 08:03:18;;;;;;;4.97;3.27;;;5.90;99.90;;;;;;5023635;28;20195;-79
2021/05/06 08:05:43;;;;;;;3.07;2.77;;;5.90;99.90;;;;;;5023009;28;20238;-79
2021/05/06 08:08:09;;;;;;;3.40;2.80;;;5.80;99.90;;;;;;5023346;28;20205;-79
2021/05/06 08:10:35;;;;;;;4.33;2.27;;;5.70;99.90;;;;;;5019475;28;20179;-78
2021/05/06 08:13:02;;;;;;;3.03;2.73;;;5.70;99.90;;;;;;5023014;28;20186;-78
2021/05/06 08:15:28;;;;;;;3.03;2.70;;;5.70;99.90;;;;;;5023212;28;20329;-78
2021/05/06 08:17:54;;;;;;;2.87;2.57;;;5.70;99.90;;;;;;5023179;28;20195;-78
2021/05/06 08:20:20;;;;;;;3.40;2.93;;;5.60;99.90;;;;;;5023656;28;20191;-78
2021/05/06 08:22:46;;;;;;;4.67;3.37;;;5.50;99.90;;;;;;5023086;28;20183;-78
2021/05/06 08:25:14;;;;;;;7.27;4.07;;;5.50;99.90;;;;;;5022063;28;20221;-78
2021/05/06 08:27:41;;;;;;;4.77;3.17;;;5.40;99.90;;;;;;5022108;28;20191;-78
2021/05/06 08:30:07;;;;;;;5.10;3.27;;;5.50;99.90;;;;;;5020175;28;20438;-77
2021/05/06 08:32:33;;;;;;;4.97;3.37;;;5.50;99.90;;;;;;5021632;28;20183;-78
2021/05/06 08:34:59;;;;;;;5.07;3.10;;;5.50;99.90;;;;;;5021522;28;20214;-78
2021/05/06 08:37:25;;;;;;;5.27;3.73;;;5.50;99.90;;;;;;5023635;28;20208;-77
2021/05/06 08:39:52;;;;;;;4.27;3.33;;;5.50;99.90;;;;;;5025344;28;20187;-74
2021/05/06 08:42:18;;;;;;;4.70;3.90;;;5.60;99.90;;;;;;5025590;28;20194;-77
2021/05/06 08:44:44;;;;;;;5.13;3.87;;;5.60;99.90;;;;;;5025311;28;20222;-75
2021/05/06 08:47:18;;;;;;;5.50;4.17;;;5.60;99.90;;;;;;5025564;28;20546;-76
2021/05/06 08:49:44;;;;;;;5.03;4.43;;;5.80;99.90;;;;;;5023540;28;20190;-75
2021/05/06 08:52:12;;;;;;;3.57;2.53;;;6.10;99.90;;;;;;5025591;28;20187;-75
2021/05/06 08:54:37;;;;;;;4.23;3.67;;;6.60;99.90;;;;;;5023806;28;20191;-75
2021/05/06 08:57:04;;;;;;;3.80;3.40;;;7.00;99.90;;;;;;5026581;28;20197;-79
2021/05/06 08:59:30;;;;;;;4.67;3.77;;;7.40;99.90;;;;;;5026865;28;20565;-80
2021/05/06 09:01:57;;;;;;;3.60;3.10;;;7.60;99.90;;;;;;5025578;28;20179;-82
2021/05/06 09:04:23;;;;;;;2.90;2.70;;;7.80;99.90;;;;;;5026993;28;20645;-81
2021/05/06 09:06:58;;;;;;;6.03;3.30;;;7.60;99.90;;;;;;5031384;28;20575;-81
2021/05/06 09:09:25;;;;;;;4.63;3.60;;;7.70;99.90;;;;;;5025240;28;20584;-80
2021/05/06 09:11:58;;;;;;;3.47;3.17;;;7.70;99.90;;;;;;5024853;28;20313;-79
2021/05/06 09:14:39;;;;;;;2.93;2.60;;;8.00;99.90;;;;;;5021736;28;20292;-81
2021/05/06 09:17:27;;;;;;;5.37;3.93;;;8.30;99.90;;;;;;5024533;28;20217;-81
2021/05/06 09:20:11;;;;;;;3.83;3.20;;;8.60;99.90;;;;;;5024782;28;20206;-80
2021/05/06 09:22:55;;;;;;;3.10;2.80;;;8.70;99.90;;;;;;5027944;28;20672;-82
2021/05/06 09:25:22;;;;;;;4.40;3.17;;;8.60;99.90;;;;;;5035435;28;20226;-80
2021/05/06 09:27:48;;;;;;;2.87;2.60;;;8.70;99.90;;;;;;5032210;28;20379;-77
2021/05/06 09:30:15;;;;;;;2.90;2.70;;;9.10;99.90;;;;;;5032097;28;20187;-78
2021/05/06 09:32:40;;;;;;;2.90;2.63;;;9.30;99.90;;;;;;5029856;28;20259;-78
2021/05/06 09:35:16;;;;;;;5.40;3.50;;;9.50;99.90;;;;;;5030785;28;20290;-78
2021/05/06 09:37:44;;;;;;;2.83;2.53;;;9.70;99.90;;;;;;5030875;28;20707;-80
2021/05/06 09:40:10;;;;;;;4.43;2.83;;;10.00;99.90;;;;;;5034016;28;20268;-77
2021/05/06 09:42:37;;;;;;;3.60;2.93;;;10.30;99.90;;;;;;5033167;28;20186;-80
2021/05/06 09:45:04;;;;;;;4.07;3.57;;;10.20;99.90;;;;;;5032153;28;20222;-79
2021/05/06 09:47:29;;;;;;;3.10;2.60;;;10.60;99.90;;;;;;5031711;28;20194;-80
2021/05/06 09:49:55;;;;;;;2.83;2.33;;;10.70;99.90;;;;;;5029366;28;20179;-80
2021/05/06 09:52:20;;;;;;;4.40;2.70;;;10.80;99.90;;;;;;5029922;28;20179;-79
2021/05/06 09:54:49;;;;;;;2.73;2.53;;;11.20;99.90;;;;;;5029035;28;20232;-79
2021/05/06 09:57:26;;;;;;;2.90;2.53;;;11.00;99.90;;;;;;5030317;28;20182;-79
2021/05/06 10:00:14;;;;;;;2.60;2.40;;;10.80;99.90;;;;;;5043894;28;20232;-80
2021/05/06 10:02:40;;;;;;;3.40;3.03;;;10.40;99.90;;;;;;5028965;28;20361;-80
2021/05/06 10:05:11;;;;;;;2.80;2.60;;;10.20;99.90;;;;;;5029116;28;20218;-79
2021/05/06 10:07:36;;;;;;;4.50;2.43;;;10.30;99.90;;;;;;5029480;28;20266;-80
2021/05/06 10:10:08;;;;;;;2.33;2.10;;;10.60;99.90;;;;;;5030265;28;20695;-78
2021/05/06 10:12:36;;;;;;;2.77;2.50;;;10.70;99.90;;;;;;5030235;28;20528;-77
2021/05/06 10:15:04;;;;;;;2.80;2.53;;;10.80;99.90;;;;;;5028727;28;20213;-76
2021/05/06 10:17:30;;;;;;;3.00;2.70;;;10.70;99.90;;;;;;5027247;28;20187;-79
2021/05/06 10:19:57;;;;;;;2.57;2.17;;;10.60;99.90;;;;;;5026943;28;20193;-79
2021/05/06 10:22:26;;;;;;;3.20;2.63;;;10.60;99.90;;;;;;5042574;28;20191;-79
2021/05/06 10:24:51;;;;;;;2.90;2.37;;;10.60;99.90;;;;;;5025419;28;20241;-77
2021/05/06 10:27:21;;;;;;;2.83;2.17;;;10.70;99.90;;;;;;5025112;28;20202;-79
2021/05/06 10:29:52;;;;;;;2.73;2.13;;;10.80;99.90;;;;;;5023451;28;20182;-81
2021/05/06 10:32:18;;;;;;;2.00;1.80;;;11.00;99.90;;;;;;5022616;28;20652;-80
2021/05/06 10:34:47;;;;;;;2.40;1.67;;;11.00;99.90;;;;;;5023802;28;20226;-81
2021/05/06 10:37:13;;;;;;;2.43;1.57;;;10.60;99.90;;;;;;5025229;28;20202;-80
2021/05/06 10:39:48;;;;;;;1.90;1.67;;;10.80;99.90;;;;;;5023476;28;20273;-77
2021/05/06 10:42:26;;;;;;;1.87;1.77;;;11.10;99.90;;;;;;5032753;28;20186;-78
2021/05/06 10:44:58;;;;;;;1.77;1.63;;;11.40;99.90;;;;;;5034136;28;20260;-78
2021/05/06 10:47:46;;;;;;;1.67;1.57;;;11.30;99.90;;;;;;5035631;28;20210;-78
2021/05/06 10:50:25;;;;;;;1.60;1.50;;;11.30;99.90;;;;;;5031028;28;20602;-78
2021/05/06 10:52:55;;;;;;;1.80;1.40;;;11.20;99.90;;;;;;5032402;28;20171;-78
2021/05/06 10:55:39;;;;;;;1.87;1.50;;;11.00;99.90;;;;;;5031581;28;20211;-78
2021/05/06 10:58:26;;;;;;;1.60;1.50;;;11.30;99.90;;;;;;5032212;28;20241;-77
2021/05/06 11:01:04;;;;;;;2.03;1.70;;;11.20;99.90;;;;;;5024641;28;20660;-78
2021/05/06 11:03:32;;;;;;;2.58;1.70;;;11.40;99.90;;;;;;5032856;28;20188;-79
2021/05/06 11:05:58;;;;;;;1.93;1.67;;;11.80;99.90;;;;;;5028646;28;20219;-78
2021/05/06 11:08:26;;;;;;;1.80;1.70;;;11.80;99.90;;;;;;5032684;28;20175;-78
2021/05/06 11:10:52;;;;;;;3.03;1.63;;;11.70;99.90;;;;;;5032990;28;20200;-79
2021/05/06 11:13:22;;;;;;;1.77;1.53;;;11.50;99.90;;;;;;5027087;28;20183;-78
2021/05/06 11:15:48;;;;;;;2.37;2.10;;;11.30;99.90;;;;;;5024524;28;20206;-77
2021/05/06 11:18:42;;;;;;;2.47;2.17;;;11.10;99.90;;;;;;5028367;28;20240;-77
2021/05/06 11:21:08;;;;;;;2.77;2.27;;;10.90;99.90;;;;;;5029135;28;20190;-78
2021/05/06 11:23:35;;;;;;;4.20;2.33;;;10.60;99.90;;;;;;5031596;28;20218;-79
2021/05/06 11:26:11;;;;;;;3.07;2.00;;;10.80;99.90;;;;;;5031207;28;20768;-76
2021/05/06 11:28:37;;;;;;;3.20;2.33;;;10.60;99.90;;;;;;5032451;28;20257;-77
2021/05/06 11:31:02;;;;;;;2.63;2.30;;;10.40;99.90;;;;;;5032111;28;20201;-77
2021/05/06 11:33:29;;;;;;;2.57;2.33;;;10.30;99.90;;;;;;5031581;28;20640;-79
2021/05/06 11:36:06;;;;;;;1.70;1.60;;;10.20;99.90;;;;;;5028789;28;20209;-78
2021/05/06 11:38:35;;;;;;;2.90;2.33;;;10.50;99.90;;;;;;5031643;28;20312;-79
2021/05/06 11:41:13;;;;;;;2.43;1.77;;;10.50;99.90;;;;;;5030317;28;20195;-77
2021/05/06 11:43:45;;;;;;;2.43;1.90;;;10.70;99.90;;;;;;5029073;28;20214;-78
2021/05/06 11:46:21;;;;;;;1.70;1.60;;;11.00;99.90;;;;;;5032335;28;20219;-78
2021/05/06 11:48:50;;;;;;;1.87;1.67;;;11.20;99.90;;;;;;5032355;28;20690;-78
2021/05/06 11:51:43;;;;;;;1.33;1.23;;;11.40;99.90;;;;;;5024221;28;20206;-77
2021/05/06 11:54:16;;;;;;;1.60;1.50;;;11.70;99.90;;;;;;5020295;28;20203;-77
2021/05/06 11:56:51;;;;;;;3.10;1.80;;;12.00;99.90;;;;;;5021699;28;21128;-77
2021/05/06 11:59:18;;;;;;;2.27;1.93;;;12.10;99.90;;;;;;5021954;28;20191;-77
2021/05/06 12:01:44;;;;;;;1.37;1.10;;;12.30;99.90;;;;;;5021702;28;20178;-77
2021/05/06 12:04:36;;;;;;;1.20;1.10;;;12.30;99.90;;;;;;5021690;28;20191;-76
2021/05/06 12:07:16;;;;;;;1.10;1.00;;;12.10;99.90;;;;;;5020583;28;20677;-78
2021/05/06 12:09:42;;;;;;;1.10;0.90;;;11.70;99.90;;;;;;5021917;28;20236;-77
2021/05/06 12:12:09;;;;;;;1.30;1.10;;;11.90;99.90;;;;;;5023164;28;20584;-76
2021/05/06 12:14:39;;;;;;;1.10;1.07;;;11.90;99.90;;;;;;5026010;28;20594;-76
2021/05/06 12:17:05;;;;;;;1.70;0.77;;;12.00;99.90;;;;;;5026338;28;20726;-78
2021/05/06 12:19:31;;;;;;;1.00;0.90;;;12.00;99.90;;;;;;5026492;28;20195;-77
2021/05/06 12:22:00;;;;;;;1.00;0.90;;;11.70;99.90;;;;;;5028152;28;20698;-75
2021/05/06 12:24:29;;;;;;;1.47;1.03;;;11.60;99.90;;;;;;5027099;28;20582;-78
2021/05/06 12:26:56;;;;;;;1.60;1.50;;;11.60;99.90;;;;;;5024679;28;20677;-79
2021/05/06 12:29:23;;;;;;;2.00;1.80;;;11.70;99.90;;;;;;5026595;28;20245;-79
2021/05/06 12:31:50;;;;;;;1.70;1.00;;;11.70;99.90;;;;;;5023593;28;20187;-79
2021/05/06 12:34:18;;;;;;;1.10;0.80;;;11.70;99.90;;;;;;5024695;28;20190;-78
2021/05/06 12:37:00;;;;;;;1.17;1.07;;;11.60;99.90;;;;;;5027024;28;20476;-79
2021/05/06 12:39:28;;;;;;;0.87;0.87;;;11.60;99.90;;;;;;5025944;28;20546;-79
2021/05/06 12:41:59;;;;;;;1.00;0.87;;;11.60;99.90;;;;;;5023787;28;20214;-80
2021/05/06 12:44:45;;;;;;;1.02;0.93;;;11.70;99.90;;;;;;5026345;28;20332;-80
2021/05/06 12:47:21;;;;;;;2.23;1.47;;;12.10;99.90;;;;;;5027629;28;20244;-79
2021/05/06 12:50:09;;;;;;;1.13;0.82;;;12.20;99.90;;;;;;5026331;28;20206;-80
2021/05/06 12:52:36;;;;;;;3.53;2.03;;;12.30;99.90;;;;;;5025746;28;20449;-79
2021/05/06 12:55:21;;;;;;;2.67;1.77;;;12.40;99.90;;;;;;5025094;28;20210;-79
2021/05/06 12:58:02;;;;;;;1.33;1.10;;;12.70;99.90;;;;;;5028165;28;20198;-79
2021/05/06 13:00:28;;;;;;;1.35;1.23;;;12.70;99.90;;;;;;5027178;28;20238;-79
2021/05/06 13:03:04;;;;;;;1.10;1.00;;;12.50;99.90;;;;;;5026902;28;20189;-78
2021/05/06 13:05:38;;;;;;;2.30;1.00;;;12.30;99.90;;;;;;5026713;28;20210;-80
2021/05/06 13:08:05;;;;;;;1.87;1.20;;;12.00;99.90;;;;;;5027012;28;20660;-79
2021/05/06 13:10:37;;;;;;;2.00;1.00;;;11.80;99.90;;;;;;5027430;28;20649;-80
2021/05/06 13:13:04;;;;;;;1.00;0.90;;;11.90;99.90;;;;;;5025011;28;20182;-80
2021/05/06 13:15:43;;;;;;;1.05;0.77;;;12.20;99.90;;;;;;5025113;28;20481;-81
2021/05/06 13:18:10;;;;;;;1.70;1.20;;;12.50;99.90;;;;;;5026481;28;20397;-82
2021/05/06 13:20:37;;;;;;;1.25;0.90;;;12.60;99.90;;;;;;5025690;28;20187;-79
2021/05/06 13:23:08;;;;;;;2.10;1.48;;;12.30;99.90;;;;;;5025664;28;20190;-80
2021/05/06 13:25:42;;;;;;;1.38;0.85;;;12.20;99.90;;;;;;5026329;28;20298;-79
2021/05/06 13:28:09;;;;;;;14.70;1.35;;;12.30;99.90;;;;;;5024368;28;20214;-79
2021/05/06 13:30:35;;;;;;;1.95;1.00;;;12.50;99.90;;;;;;5027205;28;20536;-81
2021/05/06 13:33:21;;;;;;;0.80;0.80;;;12.40;99.90;;;;;;5024446;28;20175;-81
2021/05/06 13:36:12;;;;;;;2.13;1.13;;;12.30;99.90;;;;;;5041341;28;20213;-81
2021/05/06 13:38:56;;;;;;;1.02;0.93;;;12.30;99.90;;;;;;5024209;28;20203;-79
2021/05/06 13:41:26;;;;;;;0.95;0.85;;;12.40;99.90;;;;;;5026481;28;20202;-81
2021/05/06 13:43:53;;;;;;;0.80;0.80;;;12.50;99.90;;;;;;5024150;28;20574;-80
2021/05/06 13:46:20;;;;;;;1.00;0.90;;;12.50;99.90;;;;;;5027990;28;20224;-78
2021/05/06 13:48:46;;;;;;;1.10;1.00;;;12.50;99.90;;;;;;5034454;28;20189;-77
2021/05/06 13:51:13;;;;;;;1.10;1.00;;;12.40;99.90;;;;;;5033718;28;20187;-78
2021/05/06 13:53:40;;;;;;;0.90;0.80;;;12.50;99.90;;;;;;5031778;28;20209;-78
2021/05/06 13:56:07;;;;;;;1.17;0.90;;;12.50;99.90;;;;;;5038794;28;20237;-77
2021/05/06 13:58:33;;;;;;;1.48;1.38;;;12.60;99.90;;;;;;5036032;28;20183;-78
2021/05/06 14:01:00;;;;;;;1.13;1.02;;;12.60;99.90;;;;;;5035830;28;20249;-77
2021/05/06 14:03:27;;;;;;;1.70;1.30;;;12.60;99.90;;;;;;5036367;28;20206;-77
2021/05/06 14:05:53;;;;;;;1.67;1.15;;;12.80;99.90;;;;;;5035210;28;20210;-78
2021/05/06 14:08:19;;;;;;;1.92;1.60;;;13.10;99.90;;;;;;5034897;28;20183;-77
2021/05/06 14:10:48;;;;;;;1.73;1.38;;;13.10;99.90;;;;;;5033808;28;20286;-77
2021/05/06 14:13:16;;;;;;;1.50;1.30;;;12.90;99.90;;;;;;5029248;28;20224;-81
2021/05/06 14:15:42;;;;;;;1.73;1.48;;;12.90;99.90;;;;;;5031105;28;20375;-78
2021/05/06 14:18:08;;;;;;;1.88;1.23;;;12.60;99.90;;;;;;5029434;28;20251;-79
2021/05/06 14:20:34;;;;;;;1.45;1.15;;;12.70;99.90;;;;;;5027760;28;20420;-81
2021/05/06 14:22:59;;;;;;;1.38;1.10;;;12.50;99.90;;;;;;5028289;28;20206;-80
2021/05/06 14:25:25;;;;;;;2.78;1.50;;;12.90;99.90;;;;;;5027246;28;20209;-78
2021/05/06 14:27:51;;;;;;;1.80;1.20;;;13.00;99.90;;;;;;5023963;28;20207;-79
2021/05/06 14:30:17;;;;;;;1.30;1.10;;;13.00;99.90;;;;;;5027764;28;20194;-78
2021/05/06 14:32:43;;;;;;;1.92;1.17;;;12.90;99.90;;;;;;5027357;28;20265;-80
2021/05/06 14:35:09;;;;;;;1.50;1.20;;;12.90;99.90;;;;;;5025381;28;20215;-76
2021/05/06 14:37:34;;;;;;;1.83;1.20;;;13.10;99.90;;;;;;5024301;28;20226;-77
2021/05/06 14:40:00;;;;;;;0.93;0.90;;;13.10;99.90;;;;;;5024178;28;20225;-80
2021/05/06 14:42:26;;;;;;;1.10;1.00;;;12.90;99.90;;;;;;5024968;28;20183;-82
2021/05/06 14:44:52;;;;;;;1.27;1.13;;;12.90;99.90;;;;;;5025005;28;20539;-79
2021/05/06 14:47:17;;;;;;;1.48;1.38;;;12.80;99.90;;;;;;5026029;28;20217;-82
2021/05/06 14:49:43;;;;;;;1.95;1.40;;;12.90;99.90;;;;;;5025744;28;20182;-81
2021/05/06 14:52:08;;;;;;;1.50;1.27;;;12.70;99.90;;;;;;5028824;28;20700;-79
2021/05/06 14:54:34;;;;;;;1.20;1.00;;;12.50;99.90;;;;;;5029051;28;20254;-81
2021/05/06 14:57:00;;;;;;;1.27;1.17;;;12.50;99.90;;;;;;5027197;28;20242;-79
2021/05/06 14:59:25;;;;;;;1.38;1.27;;;12.40;99.90;;;;;;5029080;28;20337;-81
2021/05/06 15:01:51;;;;;;;2.40;1.50;;;12.50;99.90;;;;;;5028091;28;20648;-79
2021/05/06 15:04:17;;;;;;;2.10;1.77;;;12.50;99.90;;;;;;5028093;28;20189;-80
2021/05/06 15:06:43;;;;;;;2.13;1.80;;;12.40;99.90;;;;;;5027694;28;20545;-80
2021/05/06 15:09:08;;;;;;;2.05;1.70;;;12.30;99.90;;;;;;5028237;28;20653;-79
2021/05/06 15:11:35;;;;;;;1.88;1.58;;;12.20;99.90;;;;;;5024986;28;20183;-80
2021/05/06 15:14:00;;;;;;;2.03;1.80;;;12.20;99.90;;;;;;5021808;28;20191;-79
2021/05/06 15:16:26;;;;;;;2.20;2.00;;;12.30;99.90;;;;;;5022364;28;20257;-78
2021/05/06 15:18:52;;;;;;;2.45;2.00;;;12.30;99.90;;;;;;5023398;28;20265;-78
2021/05/06 15:21:17;;;;;;;2.40;2.20;;;12.40;99.90;;;;;;5023226;28;20197;-79
2021/05/06 15:23:43;;;;;;;2.05;1.85;;;12.50;99.90;;;;;;5021499;28;20186;-80
2021/05/06 15:26:09;;;;;;;4.60;2.72;;;12.70;99.90;;;;;;5022966;28;20334;-80
2021/05/06 15:28:35;;;;;;;2.17;1.80;;;13.00;99.90;;;;;;5023667;28;20225;-79
2021/05/06 15:31:00;;;;;;;3.55;2.45;;;12.70;99.90;;;;;;5024427;28;20206;-80
2021/05/06 15:33:26;;;;;;;2.50;2.30;;;12.60;99.90;;;;;;5023431;28;20457;-77
2021/05/06 15:35:52;;;;;;;3.13;2.13;;;12.60;99.90;;;;;;5025016;28;20206;-77
2021/05/06 15:38:19;;;;;;;2.38;2.05;;;12.50;99.90;;;;;;5024850;28;20238;-77
2021/05/06 15:40:46;;;;;;;2.00;1.70;;;12.50;99.90;;;;;;5024120;28;20183;-79
2021/05/06 15:43:12;;;;;;;2.10;1.83;;;12.50;99.90;;;;;;5023988;28;20240;-79
2021/05/06 15:45:42;;;;;;;2.20;1.88;;;12.40;99.90;;;;;;5022185;28;20211;-79
2021/05/06 15:48:12;;;;;;;2.63;2.17;;;12.60;99.90;;;;;;5027297;28;20601;-78
2021/05/06 15:50:38;;;;;;;1.95;1.58;;;12.40;99.90;;;;;;5030655;28;20671;-81
2021/05/06 15:53:04;;;;;;;2.50;2.28;;;12.30;99.90;;;;;;5028812;28;20222;-81
2021/05/06 15:55:30;;;;;;;2.85;1.77;;;12.40;99.90;;;;;;5026166;28;20223;-82
2021/05/06 15:57:56;;;;;;;2.85;2.20;;;12.50;99.90;;;;;;5025515;28;20206;-82
2021/05/06 16:00:24;;;;;;;2.17;1.80;;;12.50;99.90;;;;;;5025436;28;20679;-80
2021/05/06 16:02:51;;;;;;;1.98;1.65;;;12.50;99.90;;;;;;5026602;28;20311;-80
2021/05/06 16:05:23;;;;;;;2.20;2.00;;;12.70;99.90;;;;;;5027628;28;20312;-79
2021/05/06 16:07:48;;;;;;;2.50;2.08;;;12.70;99.90;;;;;;5028173;28;20183;-81
2021/05/06 16:10:14;;;;;;;2.40;1.88;;;12.80;99.90;;;;;;5027245;28;20198;-80
2021/05/06 16:12:40;;;;;;;2.25;1.95;;;12.70;99.90;;;;;;5022887;28;20649;-81
2021/05/06 16:15:06;;;;;;;2.20;1.80;;;12.60;99.90;;;;;;5024491;28;20233;-80
2021/05/06 16:17:31;;;;;;;1.88;1.60;;;12.60;99.90;;;;;;5026761;28;20178;-81
2021/05/06 16:19:57;;;;;;;2.80;1.50;;;12.60;99.90;;;;;;5028274;28;20190;-81
2021/05/06 16:22:23;;;;;;;2.53;1.50;;;12.60;99.90;;;;;;5026364;28;20796;-82
2021/05/06 16:24:48;;;;;;;2.55;2.03;;;12.50;99.90;;;;;;5026503;28;20202;-81